Time;durP1;ratioP1;P1;durP2;ratioP2;P2;SDS_P1;SDS_P2;PMS_P1;PMS_P2;Temp;Humidity;BMP_temperature;BMP_pressure;BME280_temperature;BME280_humidity;BME280_pressure;Samples;Min_cycle;Max_cycle;Signal;HPM_P1;HPM_P2
2021/03/20 00:01:20;;;;;;;7.38;5.50;;;-1.10;99.90;;;;;;5076151;28;20093;-75
2021/03/20 00:03:46;;;;;;;7.85;5.32;;;-1.00;99.90;;;;;;5061339;28;20151;-76
2021/03/20 00:06:13;;;;;;;8.13;5.15;;;-1.00;99.90;;;;;;5059594;28;20188;-76
2021/03/20 00:08:39;;;;;;;7.80;5.28;;;-1.20;99.90;;;;;;5049578;28;20104;-76
2021/03/20 00:11:05;;;;;;;8.15;5.45;;;-1.30;99.90;;;;;;5050370;28;20544;-76
2021/03/20 00:13:31;;;;;;;9.65;5.93;;;-1.20;99.90;;;;;;5055398;28;20074;-78
2021/03/20 00:15:57;;;;;;;10.00;5.60;;;-1.20;99.90;;;;;;5055680;28;20081;-77
2021/03/20 00:18:26;;;;;;;7.38;5.38;;;-1.20;99.90;;;;;;5063345;28;20084;-76
2021/03/20 00:20:54;;;;;;;7.10;4.50;;;-1.40;99.90;;;;;;5055775;28;20113;-76
2021/03/20 00:23:20;;;;;;;6.85;4.47;;;-1.40;99.90;;;;;;5049044;28;20573;-78
2021/03/20 00:25:46;;;;;;;7.15;5.38;;;-1.20;99.90;;;;;;5048019;28;20097;-76
2021/03/20 00:28:14;;;;;;;8.80;5.15;;;-1.30;99.90;;;;;;5051215;28;20089;-76
2021/03/20 00:30:40;;;;;;;7.23;4.77;;;-1.40;99.90;;;;;;5049826;28;20158;-76
2021/03/20 00:33:07;;;;;;;8.13;5.45;;;-1.40;99.90;;;;;;5055618;28;20166;-76
2021/03/20 00:35:33;;;;;;;5.95;3.95;;;-1.90;99.90;;;;;;5048652;28;20738;-77
2021/03/20 00:37:59;;;;;;;9.05;5.40;;;-1.90;99.90;;;;;;5062459;28;20128;-78
2021/03/20 00:40:30;;;;;;;7.23;5.00;;;-2.10;99.90;;;;;;5048846;28;20085;-77
2021/03/20 00:42:56;;;;;;;7.53;4.50;;;-2.20;99.90;;;;;;5050644;28;20073;-76
2021/03/20 00:45:24;;;;;;;10.13;5.07;;;-2.20;99.90;;;;;;5053160;28;20128;-76
2021/03/20 00:47:51;;;;;;;7.35;4.93;;;-2.20;99.90;;;;;;5063770;28;20097;-78
2021/03/20 00:50:19;;;;;;;7.67;4.43;;;-2.10;99.90;;;;;;5066517;28;20069;-77
2021/03/20 00:52:45;;;;;;;10.17;5.40;;;-1.80;99.90;;;;;;5066043;28;20208;-78
2021/03/20 00:55:11;;;;;;;8.03;4.90;;;-1.80;99.90;;;;;;5058842;28;20991;-76
2021/03/20 00:57:37;;;;;;;7.70;4.20;;;-1.90;99.90;;;;;;5049025;28;20082;-78
2021/03/20 01:00:07;;;;;;;7.87;5.40;;;-2.10;99.90;;;;;;5054582;28;20084;-76
2021/03/20 01:02:32;;;;;;;7.73;5.20;;;-2.40;99.90;;;;;;5064975;28;20128;-76
2021/03/20 01:04:58;;;;;;;7.43;4.77;;;-2.80;99.90;;;;;;5057045;28;20132;-77
2021/03/20 01:07:23;;;;;;;6.87;4.63;;;-2.90;99.90;;;;;;5065999;28;20101;-78
2021/03/20 01:09:49;;;;;;;8.57;5.37;;;-2.70;99.90;;;;;;5048503;28;20199;-76
2021/03/20 01:12:14;;;;;;;8.30;4.90;;;-2.60;99.90;;;;;;5056133;28;20112;-77
2021/03/20 01:14:40;;;;;;;8.63;5.23;;;-2.30;99.90;;;;;;5048064;28;20096;-77
2021/03/20 01:17:05;;;;;;;7.20;4.83;;;-2.20;99.90;;;;;;5054398;28;20108;-77
2021/03/20 01:19:31;;;;;;;8.50;5.00;;;-2.30;99.90;;;;;;5064307;28;20073;-76
2021/03/20 01:21:56;;;;;;;7.90;4.97;;;-2.10;99.90;;;;;;5068482;28;20101;-76
2021/03/20 01:24:22;;;;;;;9.50;6.13;;;-2.00;99.90;;;;;;5063698;28;20107;-76
2021/03/20 01:26:47;;;;;;;9.53;5.63;;;-2.10;99.90;;;;;;5051501;28;20092;-76
2021/03/20 01:29:13;;;;;;;10.20;6.00;;;-2.10;99.90;;;;;;5063100;28;20093;-76
2021/03/20 01:31:39;;;;;;;8.70;5.87;;;-2.30;99.90;;;;;;5055126;28;20089;-76
2021/03/20 01:34:04;;;;;;;8.27;4.80;;;-2.30;99.90;;;;;;5061903;28;20088;-77
2021/03/20 01:36:30;;;;;;;9.37;5.00;;;-2.40;99.90;;;;;;5063343;28;20134;-76
2021/03/20 01:38:55;;;;;;;8.17;4.77;;;-2.60;99.90;;;;;;5050809;28;20534;-76
2021/03/20 01:41:24;;;;;;;10.60;6.07;;;-2.90;99.90;;;;;;5064994;28;20134;-76
2021/03/20 01:43:51;;;;;;;8.07;5.30;;;-3.10;99.90;;;;;;5062420;28;20076;-76
2021/03/20 01:46:38;;;;;;;9.87;5.27;;;-3.20;99.90;;;;;;5064161;28;20123;-78
2021/03/20 01:49:20;;;;;;;8.47;5.47;;;-3.30;99.90;;;;;;5050451;28;20982;-76
2021/03/20 01:52:01;;;;;;;9.00;4.87;;;-3.10;99.90;;;;;;5046891;28;20571;-77
2021/03/20 01:54:34;;;;;;;9.53;5.40;;;-2.80;99.90;;;;;;5065937;28;20219;-77
2021/03/20 01:57:01;;;;;;;10.40;5.50;;;-2.50;99.90;;;;;;5059488;28;20610;-76
2021/03/20 01:59:27;;;;;;;9.30;5.40;;;-3.10;99.90;;;;;;5070985;28;20073;-76
2021/03/20 02:01:52;;;;;;;8.43;4.70;;;-3.40;99.90;;;;;;5046761;28;20098;-76
2021/03/20 02:04:18;;;;;;;10.03;5.30;;;-3.60;99.90;;;;;;5058396;28;20095;-76
2021/03/20 02:06:43;;;;;;;9.13;5.83;;;-3.60;99.90;;;;;;5065005;28;20069;-76
2021/03/20 02:09:10;;;;;;;10.10;5.87;;;-3.40;99.90;;;;;;5053364;28;20088;-77
2021/03/20 02:11:46;;;;;;;9.47;5.37;;;-3.30;99.90;;;;;;5056308;28;20135;-77
2021/03/20 02:14:36;;;;;;;8.93;5.10;;;-3.00;99.90;;;;;;5054544;28;20075;-76
2021/03/20 02:17:20;;;;;;;8.40;6.20;;;-2.50;99.90;;;;;;5052794;28;20077;-76
2021/03/20 02:20:01;;;;;;;7.83;4.80;;;-2.60;99.90;;;;;;5063558;28;20075;-77
2021/03/20 02:22:53;;;;;;;10.47;6.13;;;-2.40;99.90;;;;;;5063589;28;20395;-77
2021/03/20 02:25:21;;;;;;;8.20;4.53;;;-2.70;99.90;;;;;;5051982;28;20094;-76
2021/03/20 02:28:15;;;;;;;11.57;5.20;;;-3.20;99.90;;;;;;5065092;28;20077;-78
2021/03/20 02:31:19;;;;;;;12.97;5.70;;;-3.40;99.90;;;;;;5051148;28;20080;-77
2021/03/20 02:34:03;;;;;;;7.73;4.70;;;-3.30;99.90;;;;;;5064959;28;20535;-78
2021/03/20 02:37:00;;;;;;;9.30;5.03;;;-3.20;99.90;;;;;;5063452;28;20093;-76
2021/03/20 02:39:57;;;;;;;9.40;5.07;;;-3.20;99.90;;;;;;5050786;28;20077;-75
2021/03/20 02:42:42;;;;;;;8.60;5.23;;;-2.80;99.90;;;;;;5056603;28;20097;-76
2021/03/20 02:45:26;;;;;;;8.60;5.20;;;-2.80;99.90;;;;;;5063326;28;20553;-77
2021/03/20 02:48:15;;;;;;;8.67;4.70;;;-2.50;99.90;;;;;;5061027;28;20448;-77
2021/03/20 02:50:54;;;;;;;8.60;4.60;;;-2.40;99.90;;;;;;5064297;28;20086;-77
2021/03/20 02:53:52;;;;;;;8.43;5.07;;;-2.30;99.90;;;;;;5050630;28;20131;-77
2021/03/20 02:56:23;;;;;;;8.53;4.60;;;-2.20;99.90;;;;;;5065805;28;20081;-76
2021/03/20 02:58:56;;;;;;;8.17;4.70;;;-2.40;99.90;;;;;;5053777;28;20572;-77
2021/03/20 03:01:25;;;;;;;7.43;4.60;;;-2.40;99.90;;;;;;5056731;28;20117;-76
2021/03/20 03:03:54;;;;;;;11.43;5.10;;;-2.40;99.90;;;;;;5058338;28;20089;-76
2021/03/20 03:06:49;;;;;;;7.30;5.10;;;-2.20;99.90;;;;;;5054906;28;20188;-76
2021/03/20 03:09:18;;;;;;;;;;;-2.30;99.90;;;;;;5065072;28;20081;-76
2021/03/20 03:11:53;;;;;;;9.67;4.67;;;-2.50;99.90;;;;;;5068686;28;20337;-77
2021/03/20 03:14:51;;;;;;;8.93;4.50;;;-2.60;99.90;;;;;;5056541;28;20155;-76
2021/03/20 03:17:18;;;;;;;8.40;4.60;;;-2.60;99.90;;;;;;5053343;28;20072;-76
2021/03/20 03:19:53;;;;;;;9.40;5.37;;;-2.70;99.90;;;;;;5063654;28;20099;-76
2021/03/20 03:22:24;;;;;;;8.40;4.77;;;-2.60;99.90;;;;;;5061299;28;20131;-76
2021/03/20 03:24:53;;;;;;;6.67;4.87;;;-2.60;99.90;;;;;;5051262;28;20090;-77
2021/03/20 03:27:20;;;;;;;8.97;5.17;;;-2.40;99.90;;;;;;5064867;28;20077;-76
2021/03/20 03:29:46;;;;;;;7.77;4.97;;;-2.40;99.90;;;;;;5064804;28;20099;-76
2021/03/20 03:32:33;;;;;;;9.67;5.13;;;-2.40;99.90;;;;;;5059405;28;20172;-76
2021/03/20 03:35:18;;;;;;;7.73;4.87;;;-2.40;99.90;;;;;;5057264;28;20112;-76
2021/03/20 03:38:06;;;;;;;10.02;5.97;;;-2.40;99.90;;;;;;5069559;28;20079;-76
2021/03/20 03:40:38;;;;;;;7.90;4.63;;;-2.40;99.90;;;;;;5051641;28;20081;-76
2021/03/20 03:43:04;;;;;;;7.63;5.30;;;-2.30;99.90;;;;;;5057524;28;20078;-77
2021/03/20 03:45:29;;;;;;;10.47;5.40;;;-2.40;99.90;;;;;;5063623;28;20104;-76
2021/03/20 03:47:58;;;;;;;8.43;5.10;;;-2.40;99.90;;;;;;5059115;28;20127;-76
2021/03/20 03:50:32;;;;;;;7.30;4.43;;;-2.40;99.90;;;;;;5049889;28;20096;-76
2021/03/20 03:52:58;;;;;;;7.07;4.40;;;-2.50;99.90;;;;;;5064421;28;20123;-76
2021/03/20 03:55:24;;;;;;;6.77;4.40;;;-2.30;99.90;;;;;;5062401;28;20456;-78
2021/03/20 03:58:13;;;;;;;7.27;5.20;;;-2.20;99.90;;;;;;5058856;28;20109;-76
2021/03/20 04:00:48;;;;;;;7.87;4.50;;;-2.00;99.90;;;;;;5048493;28;20085;-75
2021/03/20 04:04:00;;;;;;;6.13;3.97;;;-1.80;99.90;;;;;;5054846;28;20105;-77
2021/03/20 04:07:25;;;;;;;13.33;5.20;;;-1.80;99.90;;;;;;5039386;28;20481;-76
2021/03/20 04:10:23;;;;;;;8.03;4.50;;;-1.50;99.90;;;;;;4997985;28;20128;-76
2021/03/20 04:13:19;;;;;;;7.57;4.80;;;-1.50;99.90;;;;;;5000942;28;20094;-76
2021/03/20 04:16:00;;;;;;;8.82;4.85;;;-1.50;99.90;;;;;;5063163;22;20109;-73
2021/03/20 04:18:39;;;;;;;12.10;7.40;;;-1.50;99.90;;;;;;5056548;28;20109;-73
2021/03/20 04:21:40;;;;;;;21.70;9.27;;;-1.60;99.90;;;;;;5058628;28;20079;-72
2021/03/20 04:24:10;;;;;;;15.13;7.07;;;-1.70;99.90;;;;;;5046602;28;20084;-74
2021/03/20 04:26:36;;;;;;;10.93;6.70;;;-1.70;99.90;;;;;;5051908;28;20090;-74
2021/03/20 04:29:15;;;;;;;10.27;6.20;;;-1.60;99.90;;;;;;5060032;28;20081;-75
2021/03/20 04:32:06;;;;;;;18.33;7.35;;;-1.60;99.90;;;;;;5049764;28;20085;-74
2021/03/20 04:34:43;;;;;;;12.20;7.35;;;-1.60;99.90;;;;;;5063200;28;20152;-74
2021/03/20 04:37:16;;;;;;;10.10;6.40;;;-1.70;99.90;;;;;;5059646;28;20797;-74
2021/03/20 04:39:45;;;;;;;12.27;5.60;;;-1.60;99.90;;;;;;5054037;28;20073;-73
2021/03/20 04:42:13;;;;;;;9.53;6.13;;;-1.60;99.90;;;;;;5063519;28;20088;-73
2021/03/20 04:44:39;;;;;;;8.57;5.07;;;-1.60;99.90;;;;;;5050897;28;20097;-74
2021/03/20 04:47:11;;;;;;;8.73;6.37;;;-1.60;99.90;;;;;;5063507;28;20142;-75
2021/03/20 04:49:58;;;;;;;7.83;5.17;;;-1.50;99.90;;;;;;5049846;28;20160;-74
2021/03/20 04:52:31;;;;;;;10.38;6.10;;;-1.50;99.90;;;;;;5056531;28;20077;-74
2021/03/20 04:54:58;;;;;;;8.23;5.15;;;-1.50;99.90;;;;;;5055693;28;20077;-73
2021/03/20 04:57:39;;;;;;;9.90;4.57;;;-1.50;99.90;;;;;;5061974;28;20930;-74
2021/03/20 05:00:08;;;;;;;7.40;4.57;;;-1.40;99.90;;;;;;5061407;28;20184;-74
2021/03/20 05:03:03;;;;;;;7.73;5.20;;;-1.50;99.90;;;;;;5062998;28;20136;-74
2021/03/20 05:05:40;;;;;;;8.45;5.10;;;-1.50;99.90;;;;;;5052501;28;21001;-74
2021/03/20 05:08:09;;;;;;;7.37;5.17;;;-1.40;99.90;;;;;;5050168;28;20092;-74
2021/03/20 05:10:47;;;;;;;9.27;4.97;;;-1.60;99.90;;;;;;5048480;28;20255;-74
2021/03/20 05:13:30;;;;;;;6.83;4.50;;;-1.50;99.90;;;;;;5051148;28;20097;-74
2021/03/20 05:16:08;;;;;;;6.67;5.07;;;-1.40;99.90;;;;;;5046930;28;20105;-74
2021/03/20 05:18:34;;;;;;;9.37;4.50;;;-1.50;99.90;;;;;;5061097;28;20073;-74
2021/03/20 05:20:59;;;;;;;7.07;5.00;;;-1.50;99.90;;;;;;5048928;28;20146;-74
2021/03/20 05:23:25;;;;;;;9.07;5.10;;;-1.30;99.90;;;;;;5045420;28;20081;-74
2021/03/20 05:25:51;;;;;;;6.45;4.88;;;-1.30;99.90;;;;;;5050034;28;20103;-74
2021/03/20 05:28:16;;;;;;;7.82;4.95;;;-1.50;99.90;;;;;;5044982;28;20161;-74
2021/03/20 05:30:42;;;;;;;9.20;5.63;;;-1.60;99.90;;;;;;5052822;28;20077;-75
2021/03/20 05:33:09;;;;;;;7.18;5.32;;;-1.60;99.90;;;;;;5051633;28;20472;-73
2021/03/20 05:35:35;;;;;;;10.60;5.27;;;-1.60;99.90;;;;;;5047387;28;20184;-73
2021/03/20 05:38:01;;;;;;;8.73;5.47;;;-1.60;99.90;;;;;;5063647;28;20180;-72
2021/03/20 05:40:33;;;;;;;8.23;4.93;;;-1.70;99.90;;;;;;5063805;28;20077;-73
2021/03/20 05:43:29;;;;;;;7.20;4.87;;;-1.70;99.90;;;;;;5060847;28;20119;-73
2021/03/20 05:46:04;;;;;;;8.10;5.53;;;-1.70;99.90;;;;;;5047553;28;20479;-73
2021/03/20 05:48:36;;;;;;;9.88;5.32;;;-1.70;99.90;;;;;;5056355;28;20143;-74
2021/03/20 05:51:20;;;;;;;10.07;5.33;;;-1.60;99.90;;;;;;5062423;28;20093;-74
2021/03/20 05:53:49;;;;;;;8.93;5.43;;;-1.40;99.90;;;;;;5048424;28;20070;-74
2021/03/20 05:56:39;;;;;;;5.57;4.27;;;-1.40;99.90;;;;;;5049290;28;20100;-74
2021/03/20 05:59:08;;;;;;;6.65;4.22;;;-1.40;99.90;;;;;;5056736;28;20223;-74
2021/03/20 06:01:54;;;;;;;7.85;4.85;;;-1.20;99.90;;;;;;5056160;28;20081;-74
2021/03/20 06:04:38;;;;;;;6.60;4.57;;;-1.20;99.90;;;;;;5047998;28;20228;-74
2021/03/20 06:07:34;;;;;;;8.27;4.50;;;-1.20;99.90;;;;;;5051803;28;20840;-74
2021/03/20 06:10:10;;;;;;;7.63;4.93;;;-1.40;99.90;;;;;;5046047;28;20127;-75
2021/03/20 06:13:18;;;;;;;6.63;4.77;;;-1.60;99.90;;;;;;5051586;28;20092;-74
2021/03/20 06:16:16;;;;;;;5.90;4.47;;;-1.50;99.90;;;;;;5045979;28;20101;-74
2021/03/20 06:18:54;;;;;;;6.67;4.57;;;-1.50;99.90;;;;;;5043053;28;20123;-74
2021/03/20 06:21:33;;;;;;;8.20;5.03;;;-1.70;99.90;;;;;;5044564;28;20878;-74
2021/03/20 06:24:37;;;;;;;7.10;4.93;;;-1.70;99.90;;;;;;5046292;28;20088;-74
2021/03/20 06:27:08;;;;;;;7.07;4.47;;;-1.60;99.90;;;;;;5060240;28;20494;-74
2021/03/20 06:29:37;;;;;;;7.53;5.27;;;-1.80;99.90;;;;;;5051448;28;20688;-74
2021/03/20 06:32:21;;;;;;;7.33;5.23;;;-1.70;99.90;;;;;;5063864;28;20156;-74
2021/03/20 06:34:57;;;;;;;8.83;5.77;;;-1.80;99.90;;;;;;5047613;28;20069;-73
2021/03/20 06:37:35;;;;;;;7.07;4.53;;;-1.80;99.90;;;;;;5045890;28;20069;-73
2021/03/20 06:40:18;;;;;;;8.13;4.83;;;-1.80;99.90;;;;;;5046115;28;20073;-74
2021/03/20 06:42:45;;;;;;;7.60;5.73;;;-1.80;99.90;;;;;;5060797;28;20073;-74
2021/03/20 06:45:26;;;;;;;6.43;4.97;;;-1.80;99.90;;;;;;5061487;28;20092;-74
2021/03/20 06:47:56;;;;;;;9.20;5.07;;;-1.60;99.90;;;;;;5051715;28;20080;-74
2021/03/20 06:50:41;;;;;;;6.40;4.73;;;-1.50;99.90;;;;;;5051886;28;20077;-74
2021/03/20 06:53:09;;;;;;;5.38;4.22;;;-1.70;99.90;;;;;;5054605;28;20077;-74
2021/03/20 06:55:38;;;;;;;5.37;4.10;;;-1.70;99.90;;;;;;5054589;28;20155;-74
2021/03/20 06:58:13;;;;;;;4.90;3.97;;;-1.50;99.90;;;;;;5055578;28;20603;-74
2021/03/20 07:00:39;;;;;;;5.20;4.22;;;-1.60;99.90;;;;;;5046657;28;20126;-75
2021/03/20 07:03:30;;;;;;;11.13;7.03;;;-1.60;99.90;;;;;;5060703;28;20571;-74
2021/03/20 07:06:36;;;;;;;11.37;5.13;;;-1.80;99.90;;;;;;5049415;28;20163;-74
2021/03/20 07:09:06;;;;;;;7.27;5.47;;;-1.70;99.90;;;;;;4993651;28;20160;-75
2021/03/20 07:11:33;;;;;;;7.63;4.97;;;-1.60;99.90;;;;;;4998805;28;20121;-74
2021/03/20 07:14:08;;;;;;;6.47;4.93;;;-1.70;99.90;;;;;;5027023;28;20097;-74
2021/03/20 07:17:30;;;;;;;8.50;5.40;;;-1.70;99.90;;;;;;5052748;28;20096;-74
2021/03/20 07:20:01;;;;;;;7.67;5.63;;;-1.60;99.90;;;;;;4987879;28;20097;-73
2021/03/20 07:23:09;;;;;;;7.87;5.47;;;-1.60;99.90;;;;;;5042575;28;20089;-74
2021/03/20 07:25:38;;;;;;;7.80;5.67;;;-1.60;99.90;;;;;;5052737;28;20113;-73
2021/03/20 07:28:15;;;;;;;7.13;4.60;;;-1.60;99.90;;;;;;5062850;28;20537;-74
2021/03/20 07:30:59;;;;;;;7.27;4.67;;;-1.70;99.90;;;;;;5065917;28;20177;-74
2021/03/20 07:33:42;;;;;;;6.23;4.23;;;-1.60;99.90;;;;;;5046302;28;20543;-74
2021/03/20 07:36:27;;;;;;;9.37;6.57;;;-1.60;99.90;;;;;;5054840;28;20104;-74
2021/03/20 07:39:05;;;;;;;7.10;4.65;;;-1.60;99.90;;;;;;5064514;28;20167;-74
2021/03/20 07:41:51;;;;;;;7.23;5.13;;;-1.70;99.90;;;;;;5055676;28;20139;-73
2021/03/20 07:44:16;;;;;;;8.37;5.17;;;-1.80;99.90;;;;;;5052762;28;20073;-74
2021/03/20 07:46:43;;;;;;;6.93;5.43;;;-1.70;99.90;;;;;;5061479;28;20891;-74
2021/03/20 07:49:29;;;;;;;6.90;4.83;;;-1.80;99.90;;;;;;5058367;28;20069;-74
2021/03/20 07:52:01;;;;;;;6.17;4.40;;;-1.70;99.90;;;;;;5059329;28;20079;-75
2021/03/20 07:54:31;;;;;;;5.97;4.50;;;-1.60;99.90;;;;;;5054685;28;20522;-74
2021/03/20 07:57:17;;;;;;;6.30;5.00;;;-1.70;99.90;;;;;;5065737;28;20104;-74
2021/03/20 07:59:52;;;;;;;8.40;5.33;;;-1.70;99.90;;;;;;5060064;28;20082;-74
2021/03/20 08:02:32;;;;;;;;;;;-1.70;99.90;;;;;;5062773;28;20069;-74
2021/03/20 08:05:01;;;;;;;7.23;4.73;;;-1.60;99.90;;;;;;5054219;28;20363;-74
2021/03/20 08:07:32;;;;;;;8.63;5.03;;;-1.50;99.90;;;;;;5059739;28;20084;-73
2021/03/20 08:10:15;;;;;;;6.60;4.80;;;-1.50;99.90;;;;;;5067427;28;20084;-74
2021/03/20 08:13:15;;;;;;;6.60;5.13;;;-1.60;99.90;;;;;;5057359;28;20104;-73
2021/03/20 08:15:45;;;;;;;6.13;4.97;;;-1.40;99.90;;;;;;5055265;28;20556;-73
2021/03/20 08:18:38;;;;;;;8.43;5.90;;;-1.20;99.90;;;;;;5069850;28;20152;-74
2021/03/20 08:21:15;;;;;;;8.07;5.23;;;-1.30;99.90;;;;;;5063476;28;20089;-74
2021/03/20 08:24:00;;;;;;;12.97;5.70;;;-1.30;99.90;;;;;;5050909;28;20076;-74
2021/03/20 08:26:26;;;;;;;;;;;-1.30;99.90;;;;;;5066847;28;20176;-74
2021/03/20 08:29:06;;;;;;;5.67;3.97;;;-1.40;99.90;;;;;;5066033;28;20495;-73
2021/03/20 08:31:52;;;;;;;6.90;4.93;;;-1.40;99.90;;;;;;5051486;28;20132;-75
2021/03/20 08:34:51;;;;;;;9.23;6.00;;;-1.40;99.90;;;;;;5058663;28;20592;-73
2021/03/20 08:37:42;;;;;;;9.87;6.30;;;-1.20;99.90;;;;;;5066215;28;20090;-74
2021/03/20 08:40:37;;;;;;;6.30;4.90;;;-1.00;99.90;;;;;;5060155;28;20153;-74
2021/03/20 08:43:16;;;;;;;11.80;6.13;;;-1.20;99.90;;;;;;5065447;28;20532;-73
2021/03/20 08:46:36;;;;;;;7.73;5.17;;;-1.10;99.90;;;;;;5052440;28;20146;-74
2021/03/20 08:49:19;;;;;;;7.73;4.97;;;-1.00;99.90;;;;;;4980968;28;20432;-73
2021/03/20 08:51:53;;;;;;;11.93;5.57;;;-1.20;99.90;;;;;;5060839;28;20116;-75
2021/03/20 08:54:52;;;;;;;7.20;5.43;;;-1.30;99.90;;;;;;5061785;28;20088;-75
2021/03/20 08:57:35;;;;;;;8.43;5.37;;;-1.30;99.90;;;;;;5064508;28;20146;-75
2021/03/20 09:00:04;;;;;;;9.17;6.10;;;-1.20;99.90;;;;;;5065580;28;20116;-74
2021/03/20 09:02:36;;;;;;;11.13;6.60;;;-1.30;99.90;;;;;;5064106;28;20069;-74
2021/03/20 09:05:19;;;;;;;9.73;5.77;;;-1.20;99.90;;;;;;5057989;28;20128;-74
2021/03/20 09:07:59;;;;;;;8.15;4.88;;;-1.10;99.90;;;;;;5057857;28;20069;-74
2021/03/20 09:10:36;;;;;;;14.18;8.07;;;-0.90;99.90;;;;;;5074432;28;20141;-73
2021/03/20 09:13:32;;;;;;;8.77;6.38;;;-0.60;99.90;;;;;;5071061;28;20077;-73
2021/03/20 09:16:03;;;;;;;7.85;5.38;;;-0.50;99.90;;;;;;5027604;28;20124;-74
2021/03/20 09:18:30;;;;;;;8.50;6.05;;;-0.50;99.90;;;;;;5062069;28;20076;-75
2021/03/20 09:21:04;;;;;;;9.70;6.72;;;-0.40;99.90;;;;;;5062921;28;20537;-74
2021/03/20 09:23:34;;;;;;;7.95;5.10;;;-0.20;99.90;;;;;;5066831;28;20080;-75
2021/03/20 09:26:03;;;;;;;6.57;5.10;;;-0.30;99.90;;;;;;5065134;28;20198;-74
2021/03/20 09:28:51;;;;;;;6.50;5.10;;;-0.50;99.90;;;;;;5068990;28;20088;-75
2021/03/20 09:31:29;;;;;;;8.23;5.93;;;-0.50;99.90;;;;;;5065118;28;20077;-73
2021/03/20 09:33:55;;;;;;;8.48;6.30;;;-0.90;99.90;;;;;;5062282;28;20121;-74
2021/03/20 09:36:21;;;;;;;11.07;7.65;;;-1.00;99.90;;;;;;5066580;28;21057;-73
2021/03/20 09:38:52;;;;;;;9.50;6.72;;;-1.20;99.90;;;;;;5068029;28;20096;-73
2021/03/20 09:41:21;;;;;;;8.90;5.97;;;-1.10;99.90;;;;;;5068138;28;20073;-73
2021/03/20 09:43:58;;;;;;;9.43;6.60;;;-1.20;99.90;;;;;;5072114;28;20107;-74
2021/03/20 09:46:40;;;;;;;9.60;7.57;;;-1.00;99.90;;;;;;5062740;28;20611;-74
2021/03/20 09:49:06;;;;;;;8.77;6.50;;;-1.00;99.90;;;;;;5053542;28;20073;-75
2021/03/20 09:51:50;;;;;;;8.27;6.33;;;-1.00;99.90;;;;;;5059818;28;20151;-73
2021/03/20 09:54:25;;;;;;;9.23;6.50;;;-1.20;99.90;;;;;;5067858;28;20463;-73
2021/03/20 09:57:06;;;;;;;8.52;7.13;;;-1.20;99.90;;;;;;5070637;28;20092;-73
2021/03/20 09:59:34;;;;;;;9.13;6.00;;;-1.10;99.90;;;;;;5063234;28;20077;-74
2021/03/20 10:02:08;;;;;;;9.40;6.37;;;-1.00;99.90;;;;;;5071655;28;20592;-74
2021/03/20 10:05:15;;;;;;;9.45;6.38;;;-1.10;99.90;;;;;;5068570;28;20158;-73
2021/03/20 10:07:57;;;;;;;8.33;5.50;;;-1.20;99.90;;;;;;5065335;28;20084;-73
2021/03/20 10:10:23;;;;;;;9.98;6.07;;;-1.00;99.90;;;;;;5066332;28;20068;-75
2021/03/20 10:12:48;;;;;;;8.60;5.75;;;-1.00;99.90;;;;;;5073811;28;20202;-74
2021/03/20 10:15:29;;;;;;;10.15;5.88;;;-1.10;99.90;;;;;;5071184;28;20122;-74
2021/03/20 10:18:13;;;;;;;9.43;5.28;;;-0.90;99.90;;;;;;5069759;28;20076;-74
2021/03/20 10:20:43;;;;;;;7.93;5.47;;;-1.00;99.90;;;;;;5069917;28;20103;-74
2021/03/20 10:23:21;;;;;;;7.03;5.78;;;-1.00;99.90;;;;;;5073487;28;20187;-73
2021/03/20 10:25:52;;;;;;;7.20;5.87;;;-0.90;99.90;;;;;;5063170;28;20146;-74
2021/03/20 10:28:19;;;;;;;7.43;6.35;;;-0.70;99.90;;;;;;5064934;28;20162;-74
2021/03/20 10:30:59;;;;;;;10.40;8.70;;;-0.70;99.90;;;;;;5074320;28;20157;-74
2021/03/20 10:33:32;;;;;;;10.55;8.15;;;-0.60;99.90;;;;;;5067001;28;20069;-74
2021/03/20 10:36:16;;;;;;;8.98;6.55;;;-0.50;99.90;;;;;;5062251;28;20092;-75
2021/03/20 10:38:43;;;;;;;9.35;6.32;;;-0.30;99.90;;;;;;5052941;28;20088;-75
2021/03/20 10:41:19;;;;;;;9.25;5.20;;;-0.30;99.90;;;;;;5064382;28;20549;-74
2021/03/20 10:43:49;;;;;;;8.25;4.90;;;-0.40;99.90;;;;;;5055703;28;20065;-74
2021/03/20 10:46:36;;;;;;;8.75;5.85;;;-0.50;99.90;;;;;;5060958;28;20271;-73
2021/03/20 10:49:22;;;;;;;6.63;5.30;;;-0.70;99.90;;;;;;5067506;28;20100;-73
2021/03/20 10:51:51;;;;;;;6.32;5.40;;;-0.60;99.90;;;;;;5057775;28;20416;-74
2021/03/20 10:54:42;;;;;;;6.18;5.28;;;-0.60;99.90;;;;;;5054951;28;20100;-74
2021/03/20 10:57:14;;;;;;;6.72;4.97;;;-0.50;99.90;;;;;;5058490;28;20112;-74
2021/03/20 10:59:41;;;;;;;7.78;5.25;;;-0.40;99.90;;;;;;5053564;28;20541;-73
2021/03/20 11:02:23;;;;;;;7.07;5.22;;;-0.60;99.90;;;;;;5062081;28;20595;-74
2021/03/20 11:04:50;;;;;;;7.03;5.13;;;-0.70;99.90;;;;;;5060088;28;20631;-72
2021/03/20 11:07:23;;;;;;;8.57;5.45;;;-0.80;99.90;;;;;;5063042;28;20089;-74
2021/03/20 11:10:07;;;;;;;10.80;7.05;;;-0.80;99.90;;;;;;5069574;28;20085;-73
2021/03/20 11:12:32;;;;;;;7.97;5.75;;;-0.60;99.90;;;;;;5059772;28;20077;-74
2021/03/20 11:15:00;;;;;;;6.63;5.47;;;-0.80;99.90;;;;;;5064196;28;20071;-74
2021/03/20 11:17:32;;;;;;;8.73;6.10;;;-0.70;99.90;;;;;;5075361;28;20080;-76
2021/03/20 11:20:13;;;;;;;7.60;5.50;;;-0.80;99.90;;;;;;5068219;28;20108;-75
2021/03/20 11:22:40;;;;;;;7.97;5.53;;;-0.60;99.90;;;;;;5057450;28;20476;-75
2021/03/20 11:25:28;;;;;;;8.63;5.93;;;-0.80;99.90;;;;;;5071748;28;20112;-76
2021/03/20 11:28:06;;;;;;;7.87;6.60;;;-0.60;99.90;;;;;;5073808;28;20126;-75
2021/03/20 11:30:43;;;;;;;12.60;6.38;;;-0.50;99.90;;;;;;5065038;28;20096;-75
2021/03/20 11:33:14;;;;;;;9.07;5.90;;;-0.40;99.90;;;;;;5071426;28;20126;-74
2021/03/20 11:35:44;;;;;;;9.82;5.32;;;-0.40;99.90;;;;;;5076268;28;20571;-75
2021/03/20 11:38:15;;;;;;;7.85;5.47;;;-0.30;99.90;;;;;;5064031;28;21596;-74
2021/03/20 11:41:09;;;;;;;7.60;5.28;;;-0.20;99.90;;;;;;5062684;28;20073;-74
2021/03/20 11:44:10;;;;;;;8.43;4.97;;;-0.20;99.90;;;;;;5051669;28;20455;-74
2021/03/20 11:46:46;;;;;;;6.15;5.13;;;-0.30;99.90;;;;;;5050219;28;20101;-74
2021/03/20 11:49:25;;;;;;;7.05;4.82;;;-0.40;99.90;;;;;;5065538;28;20752;-75
2021/03/20 11:51:52;;;;;;;7.37;4.57;;;-0.30;99.90;;;;;;5066501;28;20080;-75
2021/03/20 11:54:38;;;;;;;5.40;4.65;;;-0.30;99.90;;;;;;5066207;28;20605;-74
2021/03/20 11:57:38;;;;;;;5.32;3.85;;;-0.40;99.90;;;;;;5068610;28;21118;-75
2021/03/20 12:00:31;;;;;;;6.10;5.07;;;-0.30;99.90;;;;;;5072400;28;20125;-74
2021/03/20 12:02:57;;;;;;;7.63;5.07;;;-0.20;99.90;;;;;;5068766;28;20628;-74
2021/03/20 12:05:26;;;;;;;7.30;5.30;;;-0.10;99.90;;;;;;5076099;28;21675;-74
2021/03/20 12:08:10;;;;;;;7.50;5.35;;;0.10;99.90;;;;;;5073280;28;20556;-74
2021/03/20 12:10:36;;;;;;;5.67;4.67;;;0.30;99.90;;;;;;5071821;28;20069;-74
2021/03/20 12:13:01;;;;;;;6.00;4.35;;;0.40;99.90;;;;;;5074627;28;20177;-74
2021/03/20 12:15:28;;;;;;;4.97;4.03;;;0.30;99.90;;;;;;5045231;28;584716;-75
2021/03/20 12:17:57;;;;;;;5.53;4.68;;;0.40;99.90;;;;;;5071872;28;20502;-74
2021/03/20 12:20:25;;;;;;;8.00;5.53;;;0.30;99.90;;;;;;5074965;28;20138;-74
2021/03/20 12:22:52;;;;;;;9.40;5.95;;;0.00;99.90;;;;;;5066002;28;20635;-75
2021/03/20 12:25:43;;;;;;;6.72;5.80;;;0.00;99.90;;;;;;5078109;28;20188;-75
2021/03/20 12:28:32;;;;;;;6.53;4.82;;;-0.20;99.90;;;;;;5067288;28;20159;-74
2021/03/20 12:31:08;;;;;;;8.32;4.88;;;-0.20;99.90;;;;;;5049500;28;20085;-75
2021/03/20 12:33:54;;;;;;;6.33;5.47;;;-0.20;99.90;;;;;;5054533;28;20076;-74
2021/03/20 12:36:48;;;;;;;10.18;6.78;;;-0.20;99.90;;;;;;5051337;28;20598;-74
2021/03/20 12:39:23;;;;;;;7.90;5.43;;;-0.20;99.90;;;;;;5066129;28;20092;-75
2021/03/20 12:41:51;;;;;;;8.63;4.88;;;-0.20;99.90;;;;;;5062333;28;20579;-74
2021/03/20 12:44:22;;;;;;;8.35;5.43;;;-0.20;99.90;;;;;;5062291;28;20135;-74
2021/03/20 12:46:52;;;;;;;8.02;5.47;;;-0.50;99.90;;;;;;5081262;28;20101;-76
2021/03/20 12:49:23;;;;;;;9.15;5.60;;;-0.40;99.90;;;;;;5055945;28;20414;-75
2021/03/20 12:51:53;;;;;;;5.40;4.63;;;-0.30;99.90;;;;;;5058063;28;20066;-75
2021/03/20 12:54:25;;;;;;;6.38;4.40;;;-0.30;99.90;;;;;;5061999;28;20073;-76
2021/03/20 12:56:51;;;;;;;8.70;5.88;;;-0.40;99.90;;;;;;5061222;28;20161;-77
2021/03/20 12:59:17;;;;;;;6.13;4.67;;;-0.50;99.90;;;;;;5064886;28;20148;-76
2021/03/20 13:01:42;;;;;;;6.03;4.50;;;-0.40;99.90;;;;;;5064335;28;20091;-75
2021/03/20 13:04:12;;;;;;;7.97;4.93;;;-0.40;99.90;;;;;;5054238;28;20160;-75
2021/03/20 13:06:38;;;;;;;4.97;4.38;;;-0.20;99.90;;;;;;5065691;28;20166;-75
2021/03/20 13:09:04;;;;;;;5.63;4.50;;;-0.20;99.90;;;;;;5056361;28;20531;-76
2021/03/20 13:11:29;;;;;;;7.05;5.13;;;-0.20;99.90;;;;;;5066070;28;20122;-74
2021/03/20 13:13:55;;;;;;;8.03;4.93;;;-0.20;99.90;;;;;;5063965;28;20081;-75
2021/03/20 13:16:21;;;;;;;5.03;3.92;;;-0.10;99.90;;;;;;5061165;28;20105;-74
2021/03/20 13:18:46;;;;;;;4.85;3.63;;;-0.10;99.90;;;;;;5064771;28;20158;-75
2021/03/20 13:21:14;;;;;;;5.82;5.03;;;-0.10;99.90;;;;;;5059916;28;20073;-75
2021/03/20 13:23:40;;;;;;;6.65;4.80;;;0.00;99.90;;;;;;5063199;28;20077;-76
2021/03/20 13:26:06;;;;;;;8.38;4.60;;;0.10;99.90;;;;;;5056062;28;20596;-75
2021/03/20 13:28:31;;;;;;;5.72;4.10;;;0.10;99.90;;;;;;5058806;28;20084;-76
2021/03/20 13:30:57;;;;;;;4.60;3.50;;;0.10;99.90;;;;;;5059593;28;20077;-74